Time;durP1;ratioP1;P1;durP2;ratioP2;P2;SDS_P1;SDS_P2;PMS_P1;PMS_P2;Temp;Humidity;BMP_temperature;BMP_pressure;BME280_temperature;BME280_humidity;BME280_pressure;Samples;Min_cycle;Max_cycle;Signal;HPM_P1;HPM_P2
2021/07/14 00:07:57;;;;;;;2.20;0.90;;;23.00;32.60;;;;;;20834139;28;20418;-66
2021/07/14 00:28:03;;;;;;;1.42;1.00;;;22.80;33.20;;;;;;20832245;28;20060;-64
2021/07/14 00:38:05;;;;;;;0.90;0.70;;;22.60;33.50;;;;;;20830940;28;20053;-68
2021/07/14 00:48:07;;;;;;;1.23;0.67;;;22.40;34.20;;;;;;20829917;28;20045;-68
2021/07/14 00:58:09;;;;;;;2.20;0.80;;;22.10;34.80;;;;;;20795560;28;20049;-65
2021/07/14 01:08:46;;;;;;;1.73;0.80;;;22.00;35.40;;;;;;20829586;28;20065;-64
2021/07/14 01:19:09;;;;;;;3.00;0.98;;;22.00;35.50;;;;;;20498199;28;20404;-67
2021/07/14 01:29:15;;;;;;;3.15;1.00;;;21.90;35.90;;;;;;20498547;28;20055;-65
2021/07/14 01:39:19;;;;;;;1.80;0.75;;;21.60;36.70;;;;;;20497858;29;20055;-66
2021/07/14 01:49:22;;;;;;;1.85;1.05;;;21.40;37.20;;;;;;20600824;28;20091;-65
2021/07/14 01:59:28;;;;;;;3.08;0.93;;;21.30;37.50;;;;;;20829140;28;20056;-66
2021/07/14 02:09:33;;;;;;;2.13;1.20;;;21.20;38.00;;;;;;20827866;28;20045;-64
2021/07/14 02:19:37;;;;;;;1.45;0.98;;;21.10;38.50;;;;;;20827002;28;20553;-64
2021/07/14 02:29:59;;;;;;;3.55;1.17;;;20.90;39.10;;;;;;20839140;28;20060;-67
2021/07/14 02:40:31;;;;;;;3.13;1.10;;;20.80;39.50;;;;;;20840865;28;20069;-65
2021/07/14 02:50:45;;;;;;;3.25;1.00;;;20.70;40.10;;;;;;20839535;28;20053;-67
2021/07/14 03:00:51;;;;;;;2.17;1.10;;;20.40;40.70;;;;;;20838623;28;20045;-68
2021/07/14 03:10:56;;;;;;;4.38;1.73;;;20.30;41.10;;;;;;20842155;28;20060;-67
2021/07/14 03:21:01;;;;;;;2.03;1.30;;;20.20;41.70;;;;;;20838150;28;20057;-68
2021/07/14 03:31:07;;;;;;;2.92;1.30;;;19.90;42.40;;;;;;20838828;28;20494;-66
2021/07/14 03:41:28;;;;;;;;;;;19.80;42.70;;;;;;20836821;28;20049;-64
2021/07/14 03:51:50;;;;;;;5.68;1.52;;;19.70;43.10;;;;;;20835332;28;19921;-65
2021/07/14 04:01:58;;;;;;;2.13;1.10;;;19.60;43.70;;;;;;20835605;28;20494;-65
2021/07/14 04:12:04;;;;;;;4.70;1.55;;;19.60;43.80;;;;;;20834060;28;20049;-65
2021/07/14 04:22:13;;;;;;;3.85;1.60;;;19.30;44.50;;;;;;20832482;28;20088;-65
2021/07/14 04:32:35;;;;;;;2.33;1.48;;;19.20;45.10;;;;;;20832631;28;20421;-66
2021/07/14 04:42:55;;;;;;;2.10;1.40;;;19.00;45.80;;;;;;20831231;28;20057;-65
2021/07/14 04:53:05;;;;;;;7.55;1.60;;;18.70;46.40;;;;;;20830840;28;20473;-66
2021/07/14 05:03:09;;;;;;;3.13;1.88;;;18.70;46.70;;;;;;20830650;28;20140;-65
2021/07/14 05:13:16;;;;;;;3.63;1.70;;;18.70;46.90;;;;;;20829607;28;20465;-65
2021/07/14 05:23:18;;;;;;;6.53;2.67;;;18.30;47.70;;;;;;20829096;28;20060;-65
2021/07/14 05:33:20;;;;;;;5.57;1.90;;;18.30;47.90;;;;;;20829155;28;20049;-65
2021/07/14 05:43:22;;;;;;;3.03;1.55;;;18.20;48.00;;;;;;20829080;28;20502;-66
2021/07/14 05:53:27;;;;;;;4.60;2.60;;;18.30;48.10;;;;;;20828477;28;20513;-63
2021/07/14 06:03:29;;;;;;;5.68;2.60;;;18.20;48.50;;;;;;20838961;28;20060;-64
2021/07/14 06:13:31;;;;;;;4.32;1.98;;;18.10;48.60;;;;;;20843890;28;20535;-64
2021/07/14 06:23:34;;;;;;;6.45;2.20;;;18.20;48.50;;;;;;20841762;28;20064;-65
2021/07/14 06:33:40;;;;;;;5.65;2.20;;;18.60;47.70;;;;;;20840767;28;20088;-66
2021/07/14 06:43:45;;;;;;;3.70;1.63;;;18.70;47.50;;;;;;20840540;28;20096;-65
2021/07/14 06:53:48;;;;;;;4.60;1.85;;;18.70;46.90;;;;;;20838463;28;20049;-64
2021/07/14 07:03:49;;;;;;;3.88;1.60;;;19.00;46.60;;;;;;20820739;28;20107;-64
2021/07/14 07:13:53;;;;;;;6.35;1.90;;;19.70;45.00;;;;;;20843980;28;20050;-66
2021/07/14 07:23:55;;;;;;;4.10;1.70;;;20.40;43.40;;;;;;20820665;28;20057;-64
2021/07/14 07:34:00;;;;;;;3.90;1.52;;;20.90;42.10;;;;;;20838198;28;20118;-65
2021/07/14 07:44:06;;;;;;;5.43;1.77;;;21.30;41.00;;;;;;20837236;28;20053;-65
2021/07/14 07:54:08;;;;;;;3.42;1.70;;;21.80;40.00;;;;;;20836560;28;20473;-65
2021/07/14 08:04:12;;;;;;;4.10;1.58;;;22.20;39.30;;;;;;20835240;28;20057;-65
2021/07/14 08:14:16;;;;;;;3.00;1.73;;;22.20;39.20;;;;;;20833156;28;20103;-68
2021/07/14 08:24:18;;;;;;;7.00;2.03;;;22.40;38.70;;;;;;20832170;28;20049;-66
2021/07/14 08:34:21;;;;;;;;;;;22.80;37.80;;;;;;20834035;28;20115;-67
2021/07/14 08:44:24;;;;;;;2.73;1.83;;;22.90;37.70;;;;;;20831271;28;19921;-66
2021/07/14 08:54:27;;;;;;;3.63;1.40;;;23.20;36.90;;;;;;20830585;28;20670;-64
2021/07/14 09:04:29;;;;;;;1.80;1.25;;;23.60;36.20;;;;;;20829804;28;20060;-66
2021/07/14 09:14:35;;;;;;;3.50;1.50;;;23.70;35.60;;;;;;20830217;28;20046;-68
2021/07/14 09:24:40;;;;;;;5.55;1.50;;;24.20;34.80;;;;;;20830247;28;20482;-66
2021/07/14 09:34:45;;;;;;;2.63;1.33;;;24.30;34.60;;;;;;20837420;28;20045;-67
2021/07/14 09:44:50;;;;;;;2.53;1.50;;;24.70;33.90;;;;;;20845760;28;20057;-65
2021/07/14 09:55:08;;;;;;;4.50;1.35;;;24.90;33.60;;;;;;20845082;28;20046;-67
2021/07/14 10:05:11;;;;;;;3.22;1.60;;;25.10;33.40;;;;;;20844806;28;20045;-67
2021/07/14 10:15:19;;;;;;;2.55;1.10;;;25.60;33.00;;;;;;20843496;28;20045;-66
2021/07/14 10:25:21;;;;;;;2.53;1.63;;;25.80;32.00;;;;;;20841397;28;20058;-65
2021/07/14 10:35:35;;;;;;;4.28;1.50;;;25.70;32.30;;;;;;20841673;28;20048;-67
2021/07/14 10:45:37;;;;;;;4.75;1.70;;;26.00;31.70;;;;;;20839770;28;20085;-69
2021/07/14 10:55:41;;;;;;;3.30;1.50;;;26.10;31.40;;;;;;20839834;28;20051;-65
2021/07/14 11:05:46;;;;;;;2.70;1.80;;;25.90;31.70;;;;;;20838904;28;20549;-65
2021/07/14 11:15:48;;;;;;;5.15;1.70;;;26.20;31.10;;;;;;20839236;28;20056;-65
2021/07/14 11:25:55;;;;;;;3.97;1.48;;;26.50;30.60;;;;;;20838933;28;20057;-67
2021/07/14 11:36:17;;;;;;;4.65;2.53;;;26.70;30.30;;;;;;20838713;28;20411;-68
2021/07/14 11:46:27;;;;;;;2.97;1.25;;;27.10;30.10;;;;;;20839587;28;20062;-66
2021/07/14 11:56:33;;;;;;;6.70;1.60;;;27.00;29.30;;;;;;20839439;28;20107;-65
2021/07/14 12:06:36;;;;;;;5.13;1.40;;;26.60;29.20;;;;;;20868733;28;20080;-65
2021/07/14 12:16:38;;;;;;;3.63;1.52;;;26.80;28.90;;;;;;20835678;28;20143;-68
2021/07/14 12:27:09;;;;;;;3.63;1.42;;;27.40;28.90;;;;;;21237139;27;20179;-67
2021/07/14 12:37:11;;;;;;;2.28;1.35;;;27.40;28.10;;;;;;21236356;27;20044;-66
2021/07/14 12:47:16;;;;;;;4.22;1.73;;;27.40;28.10;;;;;;21235883;27;20476;-67
2021/07/14 12:57:18;;;;;;;1.80;1.08;;;27.50;27.80;;;;;;21234529;27;20043;-68
2021/07/14 13:07:28;;;;;;;2.45;1.10;;;27.60;28.10;;;;;;21233289;27;20487;-66
2021/07/14 13:17:35;;;;;;;;;;;27.70;27.00;;;;;;21234153;27;20564;-67
2021/07/14 13:27:39;;;;;;;2.00;1.17;;;27.50;26.80;;;;;;21236034;27;19923;-66
2021/07/14 13:37:41;;;;;;;2.00;1.10;;;27.80;26.00;;;;;;21178446;28;20096;-67
2021/07/14 13:47:42;;;;;;;2.38;1.13;;;27.80;25.60;;;;;;21176573;28;20130;-71
2021/07/14 13:57:44;;;;;;;1.67;1.10;;;27.70;25.60;;;;;;21174612;28;20073;-70
2021/07/14 14:07:46;;;;;;;5.15;1.20;;;28.00;25.30;;;;;;21171685;28;20055;-66
2021/07/14 14:17:49;;;;;;;2.20;1.10;;;28.20;25.40;;;;;;21170862;28;20079;-68
2021/07/14 14:37:57;;;;;;;2.50;1.10;;;28.70;24.90;;;;;;21168955;28;20046;-66
2021/07/14 14:48:00;;;;;;;2.53;1.15;;;28.60;24.80;;;;;;21167300;28;20051;-68
2021/07/14 14:58:02;;;;;;;2.05;1.25;;;28.60;24.50;;;;;;21167544;28;20055;-67
2021/07/14 15:08:04;;;;;;;2.90;1.17;;;28.70;24.30;;;;;;21167692;27;20047;-68
2021/07/14 15:18:06;;;;;;;2.53;1.20;;;28.90;24.20;;;;;;21202230;27;20052;-69
2021/07/14 15:38:30;;;;;;;3.78;1.20;;;29.30;23.80;;;;;;21167509;28;20176;-68
2021/07/14 15:48:32;;;;;;;2.22;1.58;;;29.30;24.00;;;;;;21167607;28;20399;-68
2021/07/14 15:58:33;;;;;;;2.17;1.27;;;29.20;24.40;;;;;;21166075;28;20071;-67
2021/07/14 16:08:35;;;;;;;6.50;1.40;;;29.10;24.20;;;;;;21165060;28;20097;-67
2021/07/14 16:18:37;;;;;;;2.85;1.17;;;29.10;23.70;;;;;;21163108;28;20058;-69
2021/07/14 16:28:39;;;;;;;1.65;1.13;;;29.10;23.60;;;;;;21161331;28;20415;-67
2021/07/14 16:38:41;;;;;;;3.42;1.33;;;29.20;23.50;;;;;;21153575;28;20499;-55
2021/07/14 16:48:42;;;;;;;2.67;1.08;;;29.10;23.80;;;;;;21158783;28;20040;-61
2021/07/14 16:58:44;;;;;;;3.35;1.60;;;29.20;23.40;;;;;;21158820;28;20453;-61
2021/07/14 17:08:47;;;;;;;4.50;1.30;;;29.10;23.50;;;;;;21168196;28;20126;-59
2021/07/14 17:18:49;;;;;;;1.63;1.10;;;29.10;23.60;;;;;;21175330;28;20059;-64
2021/07/14 17:28:50;;;;;;;4.50;1.75;;;29.20;23.60;;;;;;21173155;28;20063;-60
2021/07/14 17:38:55;;;;;;;6.45;1.85;;;29.20;23.70;;;;;;21173339;28;20096;-59
2021/07/14 17:49:02;;;;;;;3.75;1.85;;;29.10;23.70;;;;;;21172373;28;20044;-59
2021/07/14 17:59:04;;;;;;;3.92;1.40;;;29.10;24.20;;;;;;21170411;28;20445;-59
2021/07/14 18:09:06;;;;;;;4.53;1.83;;;28.90;24.60;;;;;;21170699;28;20054;-69
2021/07/14 18:19:07;;;;;;;4.15;1.80;;;28.90;25.30;;;;;;21169491;27;20485;-65
2021/07/14 18:29:10;;;;;;;2.78;1.77;;;28.90;25.10;;;;;;21168003;28;20044;-62
2021/07/14 18:39:11;;;;;;;2.80;1.60;;;28.70;25.00;;;;;;21167803;28;20411;-68
2021/07/14 18:49:13;;;;;;;4.30;1.80;;;28.60;25.70;;;;;;21167367;28;20039;-62
2021/07/14 18:59:15;;;;;;;3.97;2.30;;;28.60;25.30;;;;;;21166707;28;20114;-64
2021/07/14 19:09:18;;;;;;;2.63;2.22;;;28.50;25.10;;;;;;21165907;28;20537;-70
2021/07/14 19:19:20;;;;;;;6.85;2.40;;;28.40;24.60;;;;;;21166559;28;20440;-69
2021/07/14 19:29:22;;;;;;;7.68;3.83;;;28.40;24.60;;;;;;21165733;28;20403;-67
2021/07/14 19:39:24;;;;;;;6.20;4.03;;;28.30;24.90;;;;;;21165905;28;20047;-65
2021/07/14 19:49:26;;;;;;;7.47;2.60;;;28.10;25.20;;;;;;21164714;28;20054;-64
2021/07/14 19:59:28;;;;;;;5.00;2.28;;;28.00;24.70;;;;;;21164889;28;20135;-65
2021/07/14 20:09:30;;;;;;;5.55;2.97;;;27.80;24.50;;;;;;21180041;28;20436;-64
2021/07/14 20:19:32;;;;;;;5.20;2.10;;;27.70;24.50;;;;;;21160800;28;20051;-66
2021/07/14 20:29:33;;;;;;;8.85;4.85;;;27.60;24.60;;;;;;21161280;28;20456;-67
2021/07/14 20:39:36;;;;;;;7.78;3.80;;;27.50;25.00;;;;;;21164470;28;20461;-67
2021/07/14 20:49:38;;;;;;;6.13;2.80;;;27.20;25.60;;;;;;21180008;28;20123;-69
2021/07/14 20:59:40;;;;;;;6.13;2.90;;;27.00;26.10;;;;;;21180012;28;20412;-65
2021/07/14 21:09:44;;;;;;;7.30;3.80;;;26.90;26.00;;;;;;21182927;28;20052;-75
2021/07/14 21:19:46;;;;;;;6.32;3.47;;;26.70;26.40;;;;;;21182394;28;20131;-70
2021/07/14 21:29:47;;;;;;;6.43;3.92;;;26.60;27.10;;;;;;21178838;28;20480;-74
2021/07/14 21:39:51;;;;;;;4.10;2.20;;;26.50;27.70;;;;;;21213111;28;20054;-69
2021/07/14 21:49:53;;;;;;;2.88;1.42;;;26.30;29.30;;;;;;21181225;28;20044;-75
2021/07/14 21:59:54;;;;;;;5.70;2.13;;;26.10;30.20;;;;;;21194102;28;20060;-70
2021/07/14 22:09:56;;;;;;;;;;;25.90;30.90;;;;;;21206900;28;20044;-70
2021/07/14 22:19:58;;;;;;;4.50;1.00;;;25.60;31.20;;;;;;21194891;28;19926;-65
2021/07/14 22:30:01;;;;;;;2.67;1.00;;;25.30;31.10;;;;;;21196602;28;20100;-74
2021/07/14 22:40:08;;;;;;;4.40;2.10;;;25.10;32.00;;;;;;21183933;28;20101;-72
2021/07/14 22:50:12;;;;;;;4.13;1.33;;;24.90;33.30;;;;;;21180518;28;20135;-72
2021/07/14 23:00:18;;;;;;;4.70;1.77;;;24.50;34.50;;;;;;21173118;28;20452;-76
2021/07/14 23:10:24;;;;;;;3.97;1.20;;;24.30;35.20;;;;;;21167549;28;20097;-73
2021/07/14 23:20:28;;;;;;;3.47;1.50;;;24.10;35.80;;;;;;21186809;28;20138;-76
2021/07/14 23:30:30;;;;;;;2.55;1.27;;;24.00;36.10;;;;;;21168058;27;20079;-69
2021/07/14 23:40:33;;;;;;;2.93;1.50;;;23.60;36.80;;;;;;21176772;28;20446;-66
2021/07/14 23:50:36;;;;;;;2.67;1.65;;;23.40;37.10;;;;;;21202273;28;20048;-75
